Time;durP1;ratioP1;P1;durP2;ratioP2;P2;SDS_P1;SDS_P2;PMS_P1;PMS_P2;Temp;Humidity;BMP_temperature;BMP_pressure;BME280_temperature;BME280_humidity;BME280_pressure;Samples;Min_cycle;Max_cycle;Signal;HPM_P1;HPM_P2
2023/07/01 00:03:20;;;;;;;38.38;21.42;;;;;19.00;95834.00;;;;8314960;28;20296;-71
2023/07/01 00:07:23;;;;;;;38.95;20.42;;;;;19.00;95832.00;;;;8315029;28;21936;-66
2023/07/01 00:11:28;;;;;;;38.40;21.33;;;;;19.00;95842.00;;;;8307318;28;20225;-70
2023/07/01 00:15:33;;;;;;;42.92;22.42;;;;;19.00;95829.00;;;;8319824;28;20229;-66
2023/07/01 00:19:36;;;;;;;41.00;21.45;;;;;19.00;95841.00;;;;8316161;28;20212;-69
2023/07/01 00:23:40;;;;;;;44.72;22.02;;;;;18.90;95838.00;;;;8319955;28;20531;-67
2023/07/01 00:27:43;;;;;;;44.15;22.85;;;;;18.80;95837.00;;;;8317176;28;20186;-67
2023/07/01 00:31:48;;;;;;;40.42;21.65;;;;;18.80;95841.00;;;;8319304;28;20284;-68
2023/07/01 00:35:51;;;;;;;49.50;24.40;;;;;18.70;95840.00;;;;8315150;28;20225;-68
2023/07/01 00:39:54;;;;;;;46.10;23.73;;;;;18.70;95837.00;;;;8316372;28;20280;-67
2023/07/01 00:43:57;;;;;;;44.83;22.55;;;;;18.70;95829.00;;;;8319734;28;20212;-67
2023/07/01 00:48:04;;;;;;;47.92;22.80;;;;;18.60;95831.00;;;;8318000;28;20200;-68
2023/07/01 00:52:08;;;;;;;44.58;21.70;;;;;18.60;95835.00;;;;8312404;28;20593;-69
2023/07/01 00:56:16;;;;;;;39.63;21.42;;;;;18.50;95828.00;;;;8319354;28;20240;-66
2023/07/01 01:00:19;;;;;;;48.33;21.88;;;;;18.50;95823.00;;;;8318621;28;20798;-65
2023/07/01 01:04:31;;;;;;;46.72;22.35;;;;;18.30;95823.00;;;;8319814;28;20217;-68
2023/07/01 01:08:44;;;;;;;44.92;22.05;;;;;18.20;95808.00;;;;8318697;28;20316;-69
2023/07/01 01:12:51;;;;;;;45.72;22.20;;;;;18.10;95806.00;;;;8318730;28;20273;-67
2023/07/01 01:16:58;;;;;;;46.30;21.45;;;;;17.90;95815.00;;;;8316466;28;20439;-68
2023/07/01 01:21:06;;;;;;;48.30;22.45;;;;;17.90;95807.00;;;;8318209;28;20198;-65
2023/07/01 01:25:18;;;;;;;48.00;21.30;;;;;17.80;95813.00;;;;8314613;28;20693;-67
2023/07/01 01:29:25;;;;;;;53.42;23.15;;;;;17.80;95823.00;;;;8317714;28;20581;-69
2023/07/01 01:33:28;;;;;;;50.58;22.02;;;;;17.80;95808.00;;;;8316208;28;20189;-70
2023/07/01 01:37:36;;;;;;;54.92;24.55;;;;;17.80;95805.00;;;;8317651;28;20261;-64
2023/07/01 01:41:53;;;;;;;44.75;21.02;;;;;17.80;95806.00;;;;8316281;28;20198;-64
2023/07/01 01:45:58;;;;;;;40.92;21.40;;;;;17.90;95819.00;;;;8304400;28;20281;-66
2023/07/01 01:50:04;;;;;;;53.08;22.65;;;;;17.90;95811.00;;;;8324672;28;20722;-64
2023/07/01 01:54:11;;;;;;;41.75;20.30;;;;;18.00;95812.00;;;;8322465;28;20221;-66
2023/07/01 01:58:17;;;;;;;45.40;21.55;;;;;18.00;95819.00;;;;8325025;28;20249;-68
2023/07/01 02:02:22;;;;;;;40.53;19.88;;;;;18.00;95816.00;;;;8315179;28;20975;-67
2023/07/01 02:06:25;;;;;;;43.40;20.98;;;;;18.00;95818.00;;;;8322545;28;20251;-67
2023/07/01 02:10:37;;;;;;;36.45;19.13;;;;;18.00;95808.00;;;;8322909;28;20271;-67
2023/07/01 02:14:40;;;;;;;41.95;19.75;;;;;18.10;95813.00;;;;8321646;28;20201;-71
2023/07/01 02:18:47;;;;;;;36.47;18.98;;;;;18.10;95813.00;;;;8325680;28;20217;-68
2023/07/01 02:22:53;;;;;;;38.80;19.20;;;;;18.00;95820.00;;;;8322960;28;20197;-72
2023/07/01 02:26:57;;;;;;;39.22;18.23;;;;;17.90;95812.00;;;;8308446;28;20292;-67
2023/07/01 02:31:00;;;;;;;37.55;17.80;;;;;17.90;95809.00;;;;8324656;28;20240;-66
2023/07/01 02:35:05;;;;;;;33.90;17.75;;;;;17.90;95802.00;;;;8320881;28;20229;-65
2023/07/01 02:39:11;;;;;;;30.02;16.55;;;;;17.90;95812.00;;;;8323607;28;20197;-66
2023/07/01 02:43:14;;;;;;;28.25;15.88;;;;;17.90;95798.00;;;;8322712;28;20286;-72
2023/07/01 02:47:25;;;;;;;28.60;15.20;;;;;17.80;95806.00;;;;8322754;28;20280;-68
2023/07/01 02:51:30;;;;;;;24.00;14.25;;;;;17.80;95809.00;;;;8324966;28;20197;-69
2023/07/01 02:55:36;;;;;;;27.63;14.73;;;;;17.80;95805.00;;;;8321399;28;20231;-67
2023/07/01 02:59:39;;;;;;;27.23;14.43;;;;;17.80;95808.00;;;;8305399;28;20224;-65
2023/07/01 03:03:42;;;;;;;28.60;14.60;;;;;17.80;95809.00;;;;8336756;23;20257;-65
2023/07/01 03:07:51;;;;;;;28.45;14.48;;;;;17.80;95810.00;;;;8316637;28;20528;-68
2023/07/01 03:11:55;;;;;;;23.58;13.95;;;;;17.90;95811.00;;;;8314129;28;20193;-71
2023/07/01 03:15:58;;;;;;;21.30;13.43;;;;;17.90;95819.00;;;;8320977;28;20797;-66
2023/07/01 03:20:02;;;;;;;28.23;13.63;;;;;17.90;95821.00;;;;8317526;28;20229;-69
2023/07/01 03:24:13;;;;;;;25.85;14.20;;;;;17.90;95820.00;;;;8317640;28;20293;-64
2023/07/01 03:28:16;;;;;;;29.35;13.90;;;;;17.90;95815.00;;;;8320685;28;20239;-66
2023/07/01 03:32:19;;;;;;;25.92;14.20;;;;;17.90;95817.00;;;;8320852;28;20548;-70
2023/07/01 03:36:22;;;;;;;23.35;13.50;;;;;17.90;95823.00;;;;8314075;28;20305;-71
2023/07/01 03:40:27;;;;;;;24.55;13.65;;;;;17.90;95824.00;;;;8311085;28;20816;-71
2023/07/01 03:44:32;;;;;;;25.50;12.55;;;;;17.90;95825.00;;;;8319774;28;20236;-70
2023/07/01 03:48:36;;;;;;;29.48;12.70;;;;;17.90;95834.00;;;;8321787;28;21109;-74
2023/07/01 03:52:40;;;;;;;23.42;12.50;;;;;18.00;95823.00;;;;8319296;28;20786;-69
2023/07/01 03:56:45;;;;;;;20.45;11.60;;;;;18.00;95821.00;;;;8312020;28;20240;-67
2023/07/01 04:00:51;;;;;;;23.55;11.75;;;;;18.00;95819.00;;;;8312902;28;20229;-71
2023/07/01 04:04:56;;;;;;;24.38;11.77;;;;;18.00;95824.00;;;;8310288;28;20237;-69
2023/07/01 04:09:12;;;;;;;19.17;11.20;;;;;18.00;95836.00;;;;8314045;28;20206;-70
2023/07/01 04:13:23;;;;;;;19.83;11.35;;;;;18.10;95836.00;;;;8290920;28;20262;-72
2023/07/01 04:17:32;;;;;;;26.33;11.10;;;;;18.20;95837.00;;;;8313581;28;20912;-66
2023/07/01 04:21:35;;;;;;;17.88;10.55;;;;;18.20;95823.00;;;;8319012;28;20247;-74
2023/07/01 04:25:41;;;;;;;19.20;10.10;;;;;18.20;95834.00;;;;8317856;28;20194;-69
2023/07/01 04:29:49;;;;;;;22.75;10.30;;;;;18.20;95833.00;;;;8324557;28;20288;-68
2023/07/01 04:33:52;;;;;;;20.73;10.35;;;;;18.30;95831.00;;;;8319453;28;20264;-70
2023/07/01 04:37:56;;;;;;;21.67;10.68;;;;;18.40;95830.00;;;;8313491;28;20865;-71
2023/07/01 04:42:05;;;;;;;25.10;9.82;;;;;18.50;95832.00;;;;8318323;28;20703;-72
2023/07/01 04:46:09;;;;;;;17.02;9.25;;;;;18.60;95830.00;;;;8314576;28;20201;-72
2023/07/01 04:50:14;;;;;;;17.35;9.60;;;;;18.70;95828.00;;;;8294961;28;20210;-72
2023/07/01 04:54:20;;;;;;;16.40;9.40;;;;;18.80;95816.00;;;;8317105;28;20229;-71
2023/07/01 04:58:24;;;;;;;29.15;10.27;;;;;19.00;95818.00;;;;8313195;28;20232;-70
2023/07/01 05:02:31;;;;;;;19.88;9.82;;;;;19.30;95832.00;;;;8308348;28;20261;-71
2023/07/01 05:06:37;;;;;;;17.98;8.65;;;;;19.50;95824.00;;;;8309606;28;20722;-69
2023/07/01 05:10:43;;;;;;;13.82;8.32;;;;;19.60;95826.00;;;;8313477;28;20708;-66
2023/07/01 05:14:46;;;;;;;15.30;7.85;;;;;19.70;95831.00;;;;8310066;28;20208;-70
2023/07/01 05:18:51;;;;;;;16.08;8.02;;;;;19.70;95823.00;;;;8313004;28;20305;-66
2023/07/01 05:22:54;;;;;;;15.75;8.70;;;;;19.80;95836.00;;;;8319594;28;20208;-72
2023/07/01 05:26:58;;;;;;;18.15;8.32;;;;;19.90;95834.00;;;;8312595;28;20203;-70
2023/07/01 05:31:02;;;;;;;14.95;8.10;;;;;20.20;95834.00;;;;8316146;28;20202;-73
2023/07/01 05:35:15;;;;;;;14.15;8.05;;;;;20.40;95837.00;;;;8307778;28;20199;-73
2023/07/01 05:39:21;;;;;;;16.52;8.82;;;;;20.50;95843.00;;;;8306442;28;20206;-71
2023/07/01 05:43:25;;;;;;;14.60;8.23;;;;;20.70;95841.00;;;;8307917;28;20289;-70
2023/07/01 05:47:31;;;;;;;13.68;7.53;;;;;20.80;95844.00;;;;8315304;28;20229;-70
2023/07/01 05:51:36;;;;;;;15.02;7.68;;;;;21.00;95847.00;;;;8308357;28;20202;-67
2023/07/01 05:55:39;;;;;;;10.82;6.85;;;;;21.30;95860.00;;;;8311920;28;21077;-69
2023/07/01 05:59:47;;;;;;;11.82;7.35;;;;;21.60;95853.00;;;;8315891;28;20261;-72
2023/07/01 06:03:51;;;;;;;15.95;8.00;;;;;21.70;95848.00;;;;8310766;28;20228;-71
2023/07/01 06:08:00;;;;;;;12.00;7.60;;;;;21.80;95852.00;;;;8309954;28;20194;-69
2023/07/01 06:12:05;;;;;;;12.15;7.50;;;;;21.90;95854.00;;;;8318055;28;20272;-74
2023/07/01 06:16:09;;;;;;;12.27;7.22;;;;;21.90;95849.00;;;;8316998;28;20702;-72
2023/07/01 06:20:12;;;;;;;10.40;7.25;;;;;22.00;95854.00;;;;8316082;28;20232;-74
2023/07/01 06:24:17;;;;;;;12.57;7.78;;;;;22.40;95855.00;;;;8311232;28;20284;-72
2023/07/01 06:28:26;;;;;;;10.77;7.30;;;;;22.70;95858.00;;;;8312783;28;20348;-68
2023/07/01 06:32:31;;;;;;;12.07;6.90;;;;;23.00;95850.00;;;;8298506;28;20748;-70
2023/07/01 06:36:35;;;;;;;13.63;6.53;;;;;23.70;95857.00;;;;8310838;28;20197;-68
2023/07/01 06:40:40;;;;;;;12.15;6.90;;;;;24.00;95862.00;;;;8303473;28;20205;-68
2023/07/01 06:44:43;;;;;;;8.68;6.75;;;;;24.20;95872.00;;;;8321435;28;20651;-72
2023/07/01 06:48:48;;;;;;;11.90;6.07;;;;;24.30;95871.00;;;;8317270;28;20208;-69
2023/07/01 06:52:54;;;;;;;9.50;5.93;;;;;24.30;95869.00;;;;8322401;28;20243;-69
2023/07/01 06:57:06;;;;;;;9.05;6.13;;;;;24.10;95870.00;;;;8318688;28;20218;-70
2023/07/01 07:01:11;;;;;;;12.10;6.13;;;;;24.20;95873.00;;;;8292975;28;20293;-70
2023/07/01 07:05:15;;;;;;;12.73;6.43;;;;;24.50;95856.00;;;;8313594;28;20231;-66
2023/07/01 07:09:24;;;;;;;8.95;6.47;;;;;25.30;95852.00;;;;8314247;28;20208;-67
2023/07/01 07:13:34;;;;;;;8.68;6.00;;;;;25.50;95845.00;;;;8315938;28;20511;-68
2023/07/01 07:17:40;;;;;;;10.05;5.78;;;;;25.70;95848.00;;;;8319950;28;20265;-64
2023/07/01 07:21:44;;;;;;;8.43;6.32;;;;;25.50;95857.00;;;;8316692;28;20202;-66
2023/07/01 07:25:49;;;;;;;8.50;5.88;;;;;25.20;95858.00;;;;8317043;28;20228;-63
2023/07/01 07:29:56;;;;;;;11.73;5.53;;;;;25.90;95853.00;;;;8317665;28;20325;-64
2023/07/01 07:34:01;;;;;;;8.63;5.07;;;;;25.90;95844.00;;;;8308341;28;20213;-64
2023/07/01 07:38:05;;;;;;;7.70;5.10;;;;;25.90;95846.00;;;;8318109;28;20239;-63
2023/07/01 07:42:10;;;;;;;9.15;5.18;;;;;26.00;95841.00;;;;8295594;28;20202;-63
2023/07/01 07:46:23;;;;;;;10.82;5.30;;;;;26.30;95839.00;;;;8318369;28;20661;-61
2023/07/01 07:50:28;;;;;;;7.65;5.45;;;;;25.90;95839.00;;;;8318954;28;20215;-61
2023/07/01 07:54:33;;;;;;;8.95;5.55;;;;;26.30;95836.00;;;;8311082;28;20208;-62
2023/07/01 07:58:38;;;;;;;8.75;5.35;;;;;27.10;95836.00;;;;8295622;28;20261;-64
2023/07/01 08:02:48;;;;;;;8.40;4.43;;;;;26.70;95828.00;;;;8310089;28;20229;-64
2023/07/01 08:06:52;;;;;;;5.32;3.85;;;;;26.20;95838.00;;;;8309566;28;20195;-64
2023/07/01 08:10:55;;;;;;;8.80;3.90;;;;;27.00;95828.00;;;;8306947;28;20284;-62
2023/07/01 08:14:58;;;;;;;7.28;4.10;;;;;28.10;95827.00;;;;8311104;28;20205;-64
2023/07/01 08:19:04;;;;;;;5.20;4.20;;;;;28.50;95823.00;;;;8317030;28;20228;-63
2023/07/01 08:23:07;;;;;;;5.90;4.00;;;;;28.90;95824.00;;;;8314777;28;20300;-64
2023/07/01 08:27:10;;;;;;;4.30;3.25;;;;;28.50;95817.00;;;;8305670;28;20206;-65
2023/07/01 08:31:13;;;;;;;4.82;3.60;;;;;28.40;95821.00;;;;8315076;28;20198;-64
2023/07/01 08:35:18;;;;;;;4.05;3.42;;;;;28.20;95808.00;;;;8312098;28;20547;-64
2023/07/01 08:39:24;;;;;;;3.45;2.72;;;;;28.40;95808.00;;;;8312240;28;20586;-63
2023/07/01 08:43:30;;;;;;;5.45;2.85;;;;;28.10;95806.00;;;;8299901;28;20213;-65
2023/07/01 08:47:34;;;;;;;4.85;2.85;;;;;28.90;95797.00;;;;8314949;28;20210;-65
2023/07/01 08:51:43;;;;;;;3.30;2.83;;;;;29.60;95796.00;;;;8315620;28;20239;-65
2023/07/01 08:55:46;;;;;;;6.30;3.00;;;;;30.10;95797.00;;;;8319587;28;20198;-65
2023/07/01 08:59:52;;;;;;;4.43;2.70;;;;;30.50;95795.00;;;;8321009;28;20221;-64
2023/07/01 09:03:55;;;;;;;2.65;2.45;;;;;30.60;95795.00;;;;8319097;28;20221;-64
2023/07/01 09:08:07;;;;;;;4.72;2.65;;;;;29.60;95792.00;;;;8322043;28;20205;-65
2023/07/01 09:12:10;;;;;;;5.85;2.72;;;;;29.50;95783.00;;;;8317967;28;20263;-67
2023/07/01 09:16:33;;;;;;;3.08;2.28;;;;;29.40;95795.00;;;;8323477;28;20206;-65
2023/07/01 09:20:38;;;;;;;4.28;2.38;;;;;29.90;95792.00;;;;8309243;28;20221;-64
2023/07/01 09:24:45;;;;;;;5.30;2.65;;;;;29.60;95789.00;;;;8311644;28;20308;-64
2023/07/01 09:28:51;;;;;;;2.63;1.98;;;;;29.70;95783.00;;;;8316202;28;20205;-63
2023/07/01 09:33:12;;;;;;;3.22;2.05;;;;;29.30;95770.00;;;;8322914;28;20272;-65
2023/07/01 09:37:20;;;;;;;2.33;2.22;;;;;29.50;95769.00;;;;8317047;28;20611;-65
2023/07/01 09:41:27;;;;;;;4.40;1.90;;;;;29.50;95774.00;;;;8321049;28;20311;-66
2023/07/01 09:45:30;;;;;;;2.55;2.28;;;;;30.20;95775.00;;;;8322029;28;20194;-63
2023/07/01 09:49:38;;;;;;;19.73;3.10;;;;;30.70;95770.00;;;;8323652;28;20809;-64
2023/07/01 09:53:41;;;;;;;5.63;2.03;;;;;30.00;95763.00;;;;8325683;28;20613;-66
2023/07/01 09:57:53;;;;;;;2.95;1.85;;;;;28.80;95764.00;;;;8319267;28;20237;-65
2023/07/01 10:02:02;;;;;;;5.60;2.55;;;;;28.20;95759.00;;;;8315310;28;20288;-66
2023/07/01 10:06:06;;;;;;;3.38;2.00;;;;;28.50;95742.00;;;;8312370;28;20202;-66
2023/07/01 10:10:21;;;;;;;2.10;1.90;;;;;29.70;95739.00;;;;8316135;28;20204;-65
2023/07/01 10:14:28;;;;;;;2.80;2.17;;;;;30.50;95734.00;;;;8317515;28;20232;-63
2023/07/01 10:18:31;;;;;;;3.55;2.30;;;;;30.40;95742.00;;;;8326419;28;20239;-65
2023/07/01 10:22:37;;;;;;;7.25;2.40;;;;;30.10;95734.00;;;;8298932;28;20204;-65
2023/07/01 10:26:46;;;;;;;5.25;2.20;;;;;30.50;95728.00;;;;8310119;28;20241;-64
2023/07/01 10:31:16;;;;;;;3.85;1.98;;;;;30.90;95728.00;;;;8315715;28;20242;-65
2023/07/01 10:35:21;;;;;;;2.25;2.05;;;;;32.20;95728.00;;;;8318160;28;20751;-66
2023/07/01 10:39:34;;;;;;;4.22;2.35;;;;;31.60;95719.00;;;;8315359;28;20255;-67
2023/07/01 10:43:37;;;;;;;3.95;1.92;;;;;31.10;95726.00;;;;8317821;28;21033;-64
2023/07/01 10:47:44;;;;;;;2.25;2.15;;;;;30.60;95709.00;;;;8314707;28;20217;-64
2023/07/01 10:52:07;;;;;;;2.38;2.15;;;;;31.70;95706.00;;;;8316923;28;20208;-64
2023/07/01 10:56:15;;;;;;;3.53;2.25;;;;;32.00;95703.00;;;;8301194;28;20194;-66
2023/07/01 11:00:36;;;;;;;2.30;2.10;;;;;31.50;95700.00;;;;8306714;28;20272;-65
2023/07/01 11:05:07;;;;;;;3.58;2.30;;;;;31.90;95706.00;;;;8312373;28;21002;-63
2023/07/01 11:09:16;;;;;;;3.65;2.10;;;;;31.80;95696.00;;;;8308796;28;20225;-64
2023/07/01 11:13:25;;;;;;;4.00;2.22;;;;;32.80;95692.00;;;;8307845;28;20260;-69
2023/07/01 11:17:31;;;;;;;2.33;2.22;;;;;33.20;95689.00;;;;8300582;28;20216;-62
2023/07/01 11:21:44;;;;;;;4.95;2.47;;;;;33.10;95682.00;;;;8304614;28;20267;-64
2023/07/01 11:25:53;;;;;;;4.40;2.65;;;;;33.50;95676.00;;;;8307433;28;20297;-66
2023/07/01 11:29:59;;;;;;;6.43;2.88;;;;;33.10;95680.00;;;;8305100;28;20197;-65
2023/07/01 11:34:05;;;;;;;2.33;1.98;;;;;32.10;95684.00;;;;8309620;28;20198;-65
2023/07/01 11:38:26;;;;;;;3.17;2.60;;;;;31.60;95681.00;;;;8306862;28;20203;-64
2023/07/01 11:42:31;;;;;;;3.08;2.50;;;;;31.50;95662.00;;;;8315572;28;20205;-63
2023/07/01 11:46:37;;;;;;;7.90;3.03;;;;;31.50;95676.00;;;;8310985;28;20232;-64
2023/07/01 11:50:51;;;;;;;3.78;2.78;;;;;32.00;95681.00;;;;8311214;28;20841;-63
2023/07/01 11:55:02;;;;;;;2.80;2.60;;;;;32.10;95666.00;;;;8298566;28;20202;-66
2023/07/01 11:59:05;;;;;;;3.58;2.97;;;;;31.20;95661.00;;;;8312040;28;20312;-62
2023/07/01 12:03:15;;;;;;;4.32;2.85;;;;;31.10;95663.00;;;;8305943;28;20304;-65
2023/07/01 12:07:21;;;;;;;3.55;2.80;;;;;32.10;95658.00;;;;8302134;28;20662;-62
2023/07/01 12:11:34;;;;;;;4.47;2.70;;;;;32.70;95666.00;;;;8304297;28;20206;-64
2023/07/01 12:15:51;;;;;;;3.30;2.60;;;;;33.40;95651.00;;;;8304949;28;20926;-64
2023/07/01 12:19:56;;;;;;;13.80;3.50;;;;;33.70;95642.00;;;;8305709;28;20229;-67
2023/07/01 12:23:59;;;;;;;12.68;3.50;;;;;34.00;95638.00;;;;8308712;28;20213;-67
2023/07/01 12:28:04;;;;;;;9.15;3.22;;;;;33.60;95639.00;;;;8318781;28;20855;-71
2023/07/01 12:32:09;;;;;;;3.65;3.35;;;;;33.80;95640.00;;;;8303467;28;20288;-68
2023/07/01 12:36:14;;;;;;;4.15;3.75;;;;;33.20;95644.00;;;;8317781;28;20236;-66
2023/07/01 12:40:17;;;;;;;5.15;3.70;;;;;32.90;95630.00;;;;8321277;28;20228;-66
2023/07/01 12:44:27;;;;;;;3.97;3.42;;;;;32.70;95631.00;;;;8290913;28;20221;-69
2023/07/01 12:48:32;;;;;;;5.30;3.33;;;;;31.80;95642.00;;;;8317983;28;20212;-66
2023/07/01 12:52:39;;;;;;;3.88;3.22;;;;;31.20;95636.00;;;;8313714;28;20197;-69
2023/07/01 12:56:44;;;;;;;4.47;2.97;;;;;31.20;95623.00;;;;8312435;28;20198;-67
2023/07/01 13:00:49;;;;;;;6.25;3.40;;;;;30.70;95626.00;;;;8311895;28;20688;-69
2023/07/01 13:05:14;;;;;;;5.72;3.50;;;;;30.50;95616.00;;;;8305203;28;20222;-66
2023/07/01 13:09:29;;;;;;;4.22;3.17;;;;;30.20;95621.00;;;;8311807;28;20852;-75
2023/07/01 13:13:35;;;;;;;5.85;3.10;;;;;30.80;95614.00;;;;8315433;28;20198;-70
2023/07/01 13:17:41;;;;;;;7.60;5.28;;;;;31.40;95606.00;;;;8311442;28;20213;-66
2023/07/01 13:21:49;;;;;;;6.38;4.68;;;;;32.00;95612.00;;;;8310533;28;20264;-70
2023/07/01 13:25:54;;;;;;;7.47;4.05;;;;;32.10;95613.00;;;;8318159;28;20201;-66
2023/07/01 13:29:57;;;;;;;5.38;4.45;;;;;32.50;95611.00;;;;8314712;28;20236;-69
2023/07/01 13:34:06;;;;;;;6.28;4.00;;;;;33.00;95614.00;;;;8324393;28;20968;-64
2023/07/01 13:38:10;;;;;;;6.15;3.58;;;;;33.00;95608.00;;;;8302562;28;20678;-71
2023/07/01 13:42:16;;;;;;;5.68;4.95;;;;;32.10;95613.00;;;;8322822;28;20313;-71
2023/07/01 13:46:20;;;;;;;8.95;5.95;;;;;32.00;95606.00;;;;8311177;28;20205;-68
2023/07/01 13:50:26;;;;;;;5.57;4.32;;;;;31.70;95591.00;;;;8320026;28;20190;-68
2023/07/01 13:54:30;;;;;;;7.68;4.50;;;;;31.50;95597.00;;;;8305439;28;20281;-67
2023/07/01 13:58:45;;;;;;;6.18;4.47;;;;;32.40;95597.00;;;;8318337;28;20291;-69
2023/07/01 14:02:51;;;;;;;11.15;6.68;;;;;32.20;95583.00;;;;8309992;28;20626;-66
2023/07/01 14:06:56;;;;;;;7.97;5.30;;;;;31.60;95581.00;;;;8313679;28;20289;-69
2023/07/01 14:11:03;;;;;;;5.10;4.18;;;;;30.50;95587.00;;;;8314581;28;20193;-67
2023/07/01 14:15:10;;;;;;;6.15;4.05;;;;;29.80;95579.00;;;;8310741;28;20290;-67
2023/07/01 14:19:16;;;;;;;9.18;5.53;;;;;30.10;95585.00;;;;8313326;28;20292;-65
2023/07/01 14:23:29;;;;;;;7.30;5.03;;;;;31.00;95571.00;;;;8309396;28;20208;-67
2023/07/01 14:27:32;;;;;;;6.45;4.63;;;;;32.00;95577.00;;;;8310088;28;20292;-67
2023/07/01 14:31:36;;;;;;;8.23;4.88;;;;;31.60;95569.00;;;;8312734;28;20288;-68
2023/07/01 14:35:40;;;;;;;5.43;4.65;;;;;31.10;95562.00;;;;8310970;28;20197;-66
2023/07/01 14:39:47;;;;;;;7.97;4.97;;;;;30.70;95560.00;;;;8312833;28;20230;-69
2023/07/01 14:43:57;;;;;;;6.85;5.18;;;;;30.60;95558.00;;;;8310238;28;20198;-66
2023/07/01 14:48:03;;;;;;;8.93;5.43;;;;;30.40;95560.00;;;;8316042;28;20255;-68
2023/07/01 14:52:12;;;;;;;6.95;5.00;;;;;30.10;95558.00;;;;8318277;28;20686;-66
2023/07/01 14:56:19;;;;;;;7.72;5.50;;;;;29.50;95556.00;;;;8294164;28;20202;-67
2023/07/01 15:00:23;;;;;;;7.28;5.25;;;;;29.20;95568.00;;;;8307820;28;20228;-68
2023/07/01 15:04:31;;;;;;;8.60;4.85;;;;;29.50;95557.00;;;;8309550;28;20225;-66
2023/07/01 15:08:34;;;;;;;5.95;4.90;;;;;29.90;95549.00;;;;8306447;28;20201;-73
2023/07/01 15:12:44;;;;;;;8.68;5.95;;;;;29.80;95553.00;;;;8293548;28;20324;-70
2023/07/01 15:16:48;;;;;;;9.60;5.93;;;;;30.00;95557.00;;;;8289750;28;20205;-69
2023/07/01 15:20:59;;;;;;;8.57;5.55;;;;;29.80;95550.00;;;;8290432;28;21053;-67
2023/07/01 15:25:06;;;;;;;6.38;5.00;;;;;29.60;95544.00;;;;8312488;28;20206;-68
2023/07/01 15:29:14;;;;;;;6.45;5.18;;;;;29.20;95551.00;;;;8310500;28;20635;-68
2023/07/01 15:33:19;;;;;;;8.68;5.15;;;;;28.90;95557.00;;;;8311034;28;20236;-68
2023/07/01 15:37:24;;;;;;;10.52;5.32;;;;;28.60;95550.00;;;;8308968;28;20207;-70
2023/07/01 15:41:29;;;;;;;7.65;4.85;;;;;28.40;95551.00;;;;8306882;28;20734;-68
2023/07/01 15:45:54;;;;;;;8.38;5.30;;;;;28.30;95549.00;;;;8297206;28;20211;-69
2023/07/01 15:49:59;;;;;;;6.63;4.80;;;;;28.00;95546.00;;;;8313522;28;20225;-66
2023/07/01 15:54:03;;;;;;;7.07;5.00;;;;;27.60;95556.00;;;;8282122;28;20548;-68
2023/07/01 15:58:23;;;;;;;7.82;4.95;;;;;27.20;95550.00;;;;8302889;28;20309;-69
2023/07/01 16:02:36;;;;;;;8.73;4.82;;;;;26.90;95548.00;;;;8301131;28;20233;-69
2023/07/01 16:06:50;;;;;;;8.32;5.00;;;;;26.80;95546.00;;;;8306339;28;20704;-70
2023/07/01 16:10:59;;;;;;;6.65;4.82;;;;;26.80;95553.00;;;;8285802;28;20201;-70
2023/07/01 16:15:07;;;;;;;6.60;4.97;;;;;26.90;95545.00;;;;8293201;28;20659;-70
2023/07/01 16:19:16;;;;;;;6.43;4.60;;;;;26.90;95545.00;;;;8299105;28;20641;-71
2023/07/01 16:23:21;;;;;;;7.30;4.90;;;;;26.70;95540.00;;;;8317633;28;20232;-69
2023/07/01 16:27:25;;;;;;;5.82;4.65;;;;;26.60;95544.00;;;;8301136;28;20800;-69
2023/07/01 16:31:30;;;;;;;7.75;4.80;;;;;26.50;95546.00;;;;8304181;28;20216;-68
2023/07/01 16:36:26;;;;;;;9.95;5.22;;;;;26.70;95546.00;;;;8295774;28;20197;-72
2023/07/01 16:40:40;;;;;;;12.57;5.70;;;;;27.30;95536.00;;;;8303678;28;20324;-69
2023/07/01 16:44:44;;;;;;;5.70;4.75;;;;;27.40;95540.00;;;;8313038;28;20296;-69
2023/07/01 16:48:52;;;;;;;8.77;4.90;;;;;27.40;95536.00;;;;8302273;28;20203;-66
2023/07/01 16:52:57;;;;;;;12.18;5.05;;;;;27.30;95537.00;;;;8310422;28;20221;-68
2023/07/01 16:57:02;;;;;;;5.80;4.40;;;;;27.20;95541.00;;;;8306594;28;20210;-69
2023/07/01 17:01:09;;;;;;;7.47;4.63;;;;;26.90;95530.00;;;;8313765;28;20252;-71
2023/07/01 17:05:17;;;;;;;6.18;4.90;;;;;26.70;95537.00;;;;8303067;28;20945;-68
2023/07/01 17:09:51;;;;;;;8.02;4.45;;;;;26.40;95535.00;;;;8312339;28;20202;-69
2023/07/01 17:14:02;;;;;;;12.85;8.05;;;;;26.30;95537.00;;;;8311428;28;20203;-70
2023/07/01 17:18:08;;;;;;;6.60;4.82;;;;;26.10;95545.00;;;;8320430;28;20229;-68
2023/07/01 17:22:11;;;;;;;10.15;6.43;;;;;26.00;95541.00;;;;8309050;28;20268;-69
2023/07/01 17:26:17;;;;;;;17.02;12.80;;;;;25.90;95535.00;;;;8318078;28;20240;-68
2023/07/01 17:30:22;;;;;;;9.40;5.88;;;;;25.70;95538.00;;;;8319891;28;20631;-68
2023/07/01 17:34:32;;;;;;;6.15;4.35;;;;;25.60;95539.00;;;;8317725;28;20244;-68
2023/07/01 17:38:35;;;;;;;5.93;4.78;;;;;25.50;95539.00;;;;8312939;28;20313;-68
2023/07/01 17:42:39;;;;;;;5.35;4.40;;;;;25.30;95535.00;;;;8313126;28;20225;-70
2023/07/01 17:46:43;;;;;;;5.65;4.00;;;;;25.20;95536.00;;;;8307069;28;20659;-69
2023/07/01 17:50:46;;;;;;;7.05;5.07;;;;;25.00;95539.00;;;;8299291;28;20909;-70
2023/07/01 17:55:02;;;;;;;6.55;4.85;;;;;24.90;95536.00;;;;8299861;28;20201;-69
2023/07/01 17:59:14;;;;;;;5.38;4.32;;;;;24.90;95533.00;;;;8299689;28;20263;-69
2023/07/01 18:03:17;;;;;;;6.68;4.45;;;;;24.80;95535.00;;;;8308135;28;20343;-68
2023/07/01 18:07:21;;;;;;;7.47;4.60;;;;;24.80;95543.00;;;;8306061;28;20201;-68
2023/07/01 18:11:24;;;;;;;4.10;3.53;;;;;24.70;95539.00;;;;8313436;28;20721;-70
2023/07/01 18:15:38;;;;;;;6.63;4.13;;;;;24.80;95537.00;;;;8321109;28;20197;-71
2023/07/01 18:19:42;;;;;;;5.43;3.75;;;;;25.00;95548.00;;;;8300751;28;20201;-66
2023/07/01 18:23:47;;;;;;;6.57;3.65;;;;;25.10;95554.00;;;;8304097;28;20559;-72
2023/07/01 18:27:50;;;;;;;6.38;3.90;;;;;25.20;95555.00;;;;8309714;28;20206;-72
2023/07/01 18:31:55;;;;;;;5.57;3.40;;;;;25.20;95555.00;;;;8311298;28;20201;-69
2023/07/01 18:36:00;;;;;;;4.43;3.78;;;;;25.30;95552.00;;;;8310416;28;20205;-69
2023/07/01 18:40:03;;;;;;;3.85;3.45;;;;;25.20;95548.00;;;;8324010;28;20193;-68
2023/07/01 18:44:07;;;;;;;6.57;3.83;;;;;25.00;95547.00;;;;8315023;28;20263;-71
2023/07/01 18:48:20;;;;;;;6.32;3.40;;;;;24.80;95550.00;;;;8314381;28;20197;-67
2023/07/01 18:52:25;;;;;;;4.50;3.72;;;;;24.80;95558.00;;;;8295150;28;20209;-67
2023/07/01 18:56:30;;;;;;;4.22;3.45;;;;;24.70;95551.00;;;;8310242;28;20822;-69
2023/07/01 19:00:36;;;;;;;10.27;3.67;;;;;24.60;95553.00;;;;8313642;28;20728;-68
2023/07/01 19:04:43;;;;;;;4.57;3.50;;;;;24.30;95557.00;;;;8312694;28;20544;-69
2023/07/01 19:08:48;;;;;;;4.05;3.60;;;;;24.10;95561.00;;;;8310453;28;20334;-69
2023/07/01 19:12:52;;;;;;;4.03;3.47;;;;;23.90;95557.00;;;;8316703;28;20263;-69
2023/07/01 19:16:57;;;;;;;5.65;3.50;;;;;23.70;95557.00;;;;8316967;28;20201;-68
2023/07/01 19:21:04;;;;;;;6.93;3.95;;;;;23.60;95569.00;;;;8319088;28;20220;-66
2023/07/01 19:25:12;;;;;;;5.28;3.42;;;;;23.40;95576.00;;;;8311980;28;20735;-69
2023/07/01 19:29:26;;;;;;;7.20;3.80;;;;;23.30;95576.00;;;;8307303;28;20202;-68
2023/07/01 19:33:31;;;;;;;6.75;3.67;;;;;23.20;95577.00;;;;8306082;28;20236;-68
2023/07/01 19:37:38;;;;;;;5.15;3.60;;;;;23.10;95587.00;;;;8303515;28;20232;-69
2023/07/01 19:41:45;;;;;;;6.03;3.92;;;;;23.00;95602.00;;;;8311038;28;20228;-68
2023/07/01 19:45:48;;;;;;;5.57;3.65;;;;;22.90;95594.00;;;;8310571;28;20202;-69
2023/07/01 19:50:02;;;;;;;5.65;3.78;;;;;22.90;95599.00;;;;8308662;28;20198;-70
2023/07/01 19:54:06;;;;;;;11.02;5.30;;;;;22.80;95603.00;;;;8303906;28;20234;-66
2023/07/01 19:58:14;;;;;;;8.35;3.92;;;;;22.80;95605.00;;;;8308843;28;20259;-72
2023/07/01 20:02:22;;;;;;;3.22;2.92;;;;;22.80;95609.00;;;;8303020;28;20686;-68
2023/07/01 20:06:28;;;;;;;7.15;3.53;;;;;22.80;95614.00;;;;8307356;28;20239;-68
2023/07/01 20:10:37;;;;;;;3.65;2.70;;;;;22.70;95609.00;;;;8310610;28;20650;-67
2023/07/01 20:14:40;;;;;;;3.13;2.83;;;;;22.70;95615.00;;;;8314207;28;20193;-67
2023/07/01 20:18:44;;;;;;;2.65;2.42;;;;;22.70;95618.00;;;;8311675;28;20224;-67
2023/07/01 20:22:52;;;;;;;2.05;1.90;;;;;22.70;95623.00;;;;8314918;28;20578;-70
2023/07/01 20:26:58;;;;;;;2.63;2.30;;;;;22.60;95622.00;;;;8312195;28;20199;-69